sensor_id;sensor_type;location;lat;lon;timestamp;P1;durP1;ratioP1;P2;durP2;ratioP2
10191;SDS011;17580;50.850;4.504;2022-10-17T00:01:39;4.03;;;3.73;;
10191;SDS011;17580;50.850;4.504;2022-10-17T00:04:06;3.80;;;3.60;;
10191;SDS011;17580;50.850;4.504;2022-10-17T00:06:33;3.13;;;2.83;;
10191;SDS011;17580;50.850;4.504;2022-10-17T00:09:00;3.80;;;3.50;;
10191;SDS011;17580;50.850;4.504;2022-10-17T00:11:27;4.03;;;3.73;;
10191;SDS011;17580;50.850;4.504;2022-10-17T00:13:55;6.90;;;3.60;;
10191;SDS011;17580;50.850;4.504;2022-10-17T00:16:22;3.20;;;3.00;;
10191;SDS011;17580;50.850;4.504;2022-10-17T00:18:51;3.93;;;3.63;;
10191;SDS011;17580;50.850;4.504;2022-10-17T00:21:18;9.50;;;4.40;;
10191;SDS011;17580;50.850;4.504;2022-10-17T00:23:46;5.30;;;4.80;;
10191;SDS011;17580;50.850;4.504;2022-10-17T00:26:13;3.40;;;3.10;;
10191;SDS011;17580;50.850;4.504;2022-10-17T00:28:41;5.00;;;4.60;;
10191;SDS011;17580;50.850;4.504;2022-10-17T00:31:13;5.97;;;4.60;;
10191;SDS011;17580;50.850;4.504;2022-10-17T00:33:41;4.97;;;4.57;;
10191;SDS011;17580;50.850;4.504;2022-10-17T00:36:09;6.50;;;4.40;;
10191;SDS011;17580;50.850;4.504;2022-10-17T00:38:37;5.97;;;4.97;;
10191;SDS011;17580;50.850;4.504;2022-10-17T00:41:06;7.13;;;5.33;;
10191;SDS011;17580;50.850;4.504;2022-10-17T00:43:50;4.50;;;4.10;;
10191;SDS011;17580;50.850;4.504;2022-10-17T00:46:21;5.70;;;4.70;;
10191;SDS011;17580;50.850;4.504;2022-10-17T00:48:50;6.30;;;4.87;;
10191;SDS011;17580;50.850;4.504;2022-10-17T00:51:20;4.50;;;4.10;;
10191;SDS011;17580;50.850;4.504;2022-10-17T00:53:51;6.50;;;5.13;;
10191;SDS011;17580;50.850;4.504;2022-10-17T00:56:18;5.83;;;5.27;;
10191;SDS011;17580;50.850;4.504;2022-10-17T00:58:46;5.27;;;4.87;;
10191;SDS011;17580;50.850;4.504;2022-10-17T01:01:13;5.87;;;5.37;;
10191;SDS011;17580;50.850;4.504;2022-10-17T01:03:42;6.83;;;5.63;;
10191;SDS011;17580;50.850;4.504;2022-10-17T01:06:09;5.30;;;4.90;;
10191;SDS011;17580;50.850;4.504;2022-10-17T01:08:36;5.13;;;4.67;;
10191;SDS011;17580;50.850;4.504;2022-10-17T01:11:04;4.73;;;4.33;;
10191;SDS011;17580;50.850;4.504;2022-10-17T01:13:44;4.20;;;4.00;;
10191;SDS011;17580;50.850;4.504;2022-10-17T01:16:16;10.07;;;4.90;;
10191;SDS011;17580;50.850;4.504;2022-10-17T01:18:54;3.90;;;3.70;;
10191;SDS011;17580;50.850;4.504;2022-10-17T01:21:32;5.20;;;4.73;;
10191;SDS011;17580;50.850;4.504;2022-10-17T01:24:21;4.73;;;4.23;;
10191;SDS011;17580;50.850;4.504;2022-10-17T01:30:23;4.97;;;4.47;;
10191;SDS011;17580;50.850;4.504;2022-10-17T01:33:16;5.20;;;4.67;;
10191;SDS011;17580;50.850;4.504;2022-10-17T01:35:50;5.10;;;4.70;;
10191;SDS011;17580;50.850;4.504;2022-10-17T01:38:22;6.00;;;4.50;;
10191;SDS011;17580;50.850;4.504;2022-10-17T01:40:54;6.20;;;5.03;;
10191;SDS011;17580;50.850;4.504;2022-10-17T01:43:30;4.20;;;3.90;;
10191;SDS011;17580;50.850;4.504;2022-10-17T01:46:04;5.03;;;4.63;;
10191;SDS011;17580;50.850;4.504;2022-10-17T01:48:38;4.97;;;4.47;;
10191;SDS011;17580;50.850;4.504;2022-10-17T01:51:10;4.90;;;4.50;;
10191;SDS011;17580;50.850;4.504;2022-10-17T01:53:44;5.00;;;4.50;;
10191;SDS011;17580;50.850;4.504;2022-10-17T01:56:15;6.60;;;5.27;;
10191;SDS011;17580;50.850;4.504;2022-10-17T01:58:46;4.40;;;4.00;;
10191;SDS011;17580;50.850;4.504;2022-10-17T02:01:17;9.60;;;4.40;;
10191;SDS011;17580;50.850;4.504;2022-10-17T02:03:47;5.57;;;4.90;;
10191;SDS011;17580;50.850;4.504;2022-10-17T02:06:16;5.43;;;4.93;;
10191;SDS011;17580;50.850;4.504;2022-10-17T02:08:44;4.83;;;4.43;;
10191;SDS011;17580;50.850;4.504;2022-10-17T02:11:13;5.67;;;4.90;;
10191;SDS011;17580;50.850;4.504;2022-10-17T02:13:47;9.53;;;4.63;;
10191;SDS011;17580;50.850;4.504;2022-10-17T02:16:33;5.23;;;4.73;;
10191;SDS011;17580;50.850;4.504;2022-10-17T02:19:13;6.13;;;4.07;;
10191;SDS011;17580;50.850;4.504;2022-10-17T02:21:54;5.13;;;4.60;;
10191;SDS011;17580;50.850;4.504;2022-10-17T02:24:30;4.80;;;4.40;;
10191;SDS011;17580;50.850;4.504;2022-10-17T02:27:04;5.10;;;4.70;;
10191;SDS011;17580;50.850;4.504;2022-10-17T02:29:37;4.90;;;4.50;;
10191;SDS011;17580;50.850;4.504;2022-10-17T02:32:10;5.80;;;4.73;;
10191;SDS011;17580;50.850;4.504;2022-10-17T02:34:43;5.67;;;5.10;;
10191;SDS011;17580;50.850;4.504;2022-10-17T02:37:13;7.93;;;4.97;;
10191;SDS011;17580;50.850;4.504;2022-10-17T02:39:43;11.23;;;6.13;;
10191;SDS011;17580;50.850;4.504;2022-10-17T02:42:12;7.47;;;4.50;;
10191;SDS011;17580;50.850;4.504;2022-10-17T02:44:40;5.33;;;4.93;;
10191;SDS011;17580;50.850;4.504;2022-10-17T02:47:10;5.33;;;4.10;;
10191;SDS011;17580;50.850;4.504;2022-10-17T02:49:43;7.53;;;4.40;;
10191;SDS011;17580;50.850;4.504;2022-10-17T02:52:16;6.23;;;5.00;;
10191;SDS011;17580;50.850;4.504;2022-10-17T02:54:49;4.87;;;4.47;;
10191;SDS011;17580;50.850;4.504;2022-10-17T02:57:21;7.13;;;4.83;;
10191;SDS011;17580;50.850;4.504;2022-10-17T02:59:53;5.50;;;4.70;;
10191;SDS011;17580;50.850;4.504;2022-10-17T03:02:22;6.73;;;4.90;;
10191;SDS011;17580;50.850;4.504;2022-10-17T03:04:51;5.73;;;4.17;;
10191;SDS011;17580;50.850;4.504;2022-10-17T03:07:18;4.30;;;4.00;;
10191;SDS011;17580;50.850;4.504;2022-10-17T03:09:45;6.60;;;4.17;;
10191;SDS011;17580;50.850;4.504;2022-10-17T03:12:12;7.17;;;5.00;;
10191;SDS011;17580;50.850;4.504;2022-10-17T03:14:39;4.63;;;4.23;;
10191;SDS011;17580;50.850;4.504;2022-10-17T03:17:06;5.17;;;4.60;;
10191;SDS011;17580;50.850;4.504;2022-10-17T03:19:33;6.90;;;4.47;;
10191;SDS011;17580;50.850;4.504;2022-10-17T03:22:01;4.37;;;4.07;;
10191;SDS011;17580;50.850;4.504;2022-10-17T03:24:28;5.33;;;4.13;;
10191;SDS011;17580;50.850;4.504;2022-10-17T03:26:55;4.13;;;3.93;;
10191;SDS011;17580;50.850;4.504;2022-10-17T03:29:22;7.63;;;4.23;;
10191;SDS011;17580;50.850;4.504;2022-10-17T03:31:49;3.90;;;3.70;;
10191;SDS011;17580;50.850;4.504;2022-10-17T03:34:15;5.60;;;4.10;;
10191;SDS011;17580;50.850;4.504;2022-10-17T03:36:43;4.93;;;4.30;;
10191;SDS011;17580;50.850;4.504;2022-10-17T03:39:11;4.57;;;4.17;;
10191;SDS011;17580;50.850;4.504;2022-10-17T03:41:38;4.80;;;4.40;;
10191;SDS011;17580;50.850;4.504;2022-10-17T03:44:05;4.30;;;3.83;;
10191;SDS011;17580;50.850;4.504;2022-10-17T03:46:32;4.50;;;4.10;;
10191;SDS011;17580;50.850;4.504;2022-10-17T03:48:59;4.10;;;3.80;;
10191;SDS011;17580;50.850;4.504;2022-10-17T03:51:26;5.23;;;4.70;;
10191;SDS011;17580;50.850;4.504;2022-10-17T03:53:53;4.27;;;3.97;;
10191;SDS011;17580;50.850;4.504;2022-10-17T03:56:22;4.50;;;4.20;;
10191;SDS011;17580;50.850;4.504;2022-10-17T03:58:50;3.87;;;3.57;;
10191;SDS011;17580;50.850;4.504;2022-10-17T04:01:17;7.53;;;4.30;;
10191;SDS011;17580;50.850;4.504;2022-10-17T04:03:47;4.10;;;3.80;;
10191;SDS011;17580;50.850;4.504;2022-10-17T04:06:14;4.50;;;4.17;;
10191;SDS011;17580;50.850;4.504;2022-10-17T04:08:41;4.60;;;4.20;;
10191;SDS011;17580;50.850;4.504;2022-10-17T04:11:09;3.60;;;3.40;;
10191;SDS011;17580;50.850;4.504;2022-10-17T04:13:41;4.27;;;3.97;;
10191;SDS011;17580;50.850;4.504;2022-10-17T04:16:09;4.33;;;3.67;;
10191;SDS011;17580;50.850;4.504;2022-10-17T04:18:38;4.33;;;4.00;;
10191;SDS011;17580;50.850;4.504;2022-10-17T04:21:05;4.30;;;3.90;;
10191;SDS011;17580;50.850;4.504;2022-10-17T04:23:33;4.23;;;3.70;;
10191;SDS011;17580;50.850;4.504;2022-10-17T04:26:01;4.27;;;4.03;;
10191;SDS011;17580;50.850;4.504;2022-10-17T04:28:29;4.80;;;4.50;;
10191;SDS011;17580;50.850;4.504;2022-10-17T04:30:58;4.43;;;4.03;;
10191;SDS011;17580;50.850;4.504;2022-10-17T04:33:26;4.17;;;3.87;;
10191;SDS011;17580;50.850;4.504;2022-10-17T04:35:54;3.80;;;3.50;;
10191;SDS011;17580;50.850;4.504;2022-10-17T04:38:22;3.80;;;3.50;;
10191;SDS011;17580;50.850;4.504;2022-10-17T04:40:49;5.47;;;4.27;;
10191;SDS011;17580;50.850;4.504;2022-10-17T04:43:16;4.50;;;4.17;;
10191;SDS011;17580;50.850;4.504;2022-10-17T04:45:43;4.43;;;4.07;;
10191;SDS011;17580;50.850;4.504;2022-10-17T04:48:11;4.40;;;4.00;;
10191;SDS011;17580;50.850;4.504;2022-10-17T04:50:38;4.10;;;3.50;;
10191;SDS011;17580;50.850;4.504;2022-10-17T04:53:05;4.77;;;4.40;;
10191;SDS011;17580;50.850;4.504;2022-10-17T04:55:35;9.33;;;4.03;;
10191;SDS011;17580;50.850;4.504;2022-10-17T04:58:02;3.90;;;3.60;;
10191;SDS011;17580;50.850;4.504;2022-10-17T05:00:29;4.43;;;4.03;;
10191;SDS011;17580;50.850;4.504;2022-10-17T05:02:56;4.37;;;3.60;;
10191;SDS011;17580;50.850;4.504;2022-10-17T05:05:25;4.40;;;4.00;;
10191;SDS011;17580;50.850;4.504;2022-10-17T05:07:52;5.63;;;4.27;;
10191;SDS011;17580;50.850;4.504;2022-10-17T05:10:18;4.23;;;3.93;;
10191;SDS011;17580;50.850;4.504;2022-10-17T05:12:45;3.80;;;3.40;;
10191;SDS011;17580;50.850;4.504;2022-10-17T05:15:12;4.07;;;3.40;;
10191;SDS011;17580;50.850;4.504;2022-10-17T05:17:40;6.27;;;5.10;;
10191;SDS011;17580;50.850;4.504;2022-10-17T05:20:07;6.03;;;4.70;;
10191;SDS011;17580;50.850;4.504;2022-10-17T05:22:36;4.67;;;4.20;;
10191;SDS011;17580;50.850;4.504;2022-10-17T05:25:03;4.70;;;4.20;;
10191;SDS011;17580;50.850;4.504;2022-10-17T05:27:31;4.77;;;4.27;;
10191;SDS011;17580;50.850;4.504;2022-10-17T05:29:58;4.20;;;3.90;;
10191;SDS011;17580;50.850;4.504;2022-10-17T05:32:25;4.63;;;4.00;;
10191;SDS011;17580;50.850;4.504;2022-10-17T05:34:52;9.03;;;5.00;;
10191;SDS011;17580;50.850;4.504;2022-10-17T05:37:19;4.50;;;4.10;;
10191;SDS011;17580;50.850;4.504;2022-10-17T05:39:47;7.10;;;4.23;;
10191;SDS011;17580;50.850;4.504;2022-10-17T05:42:14;4.37;;;3.97;;
10191;SDS011;17580;50.850;4.504;2022-10-17T05:44:41;3.90;;;3.50;;
10191;SDS011;17580;50.850;4.504;2022-10-17T05:47:08;5.00;;;4.20;;
10191;SDS011;17580;50.850;4.504;2022-10-17T05:49:35;6.40;;;4.40;;
10191;SDS011;17580;50.850;4.504;2022-10-17T05:52:02;3.80;;;3.53;;
10191;SDS011;17580;50.850;4.504;2022-10-17T05:54:29;5.63;;;4.30;;
10191;SDS011;17580;50.850;4.504;2022-10-17T05:56:57;4.10;;;3.80;;
10191;SDS011;17580;50.850;4.504;2022-10-17T05:59:24;4.33;;;3.93;;
10191;SDS011;17580;50.850;4.504;2022-10-17T06:01:52;3.87;;;3.57;;
10191;SDS011;17580;50.850;4.504;2022-10-17T06:04:19;3.93;;;3.63;;
10191;SDS011;17580;50.850;4.504;2022-10-17T06:06:46;6.10;;;4.60;;
10191;SDS011;17580;50.850;4.504;2022-10-17T06:09:13;4.50;;;4.10;;
10191;SDS011;17580;50.850;4.504;2022-10-17T06:11:40;4.43;;;4.03;;
10191;SDS011;17580;50.850;4.504;2022-10-17T06:14:08;3.97;;;3.53;;
10191;SDS011;17580;50.850;4.504;2022-10-17T06:16:35;3.93;;;3.43;;
10191;SDS011;17580;50.850;4.504;2022-10-17T06:19:02;4.80;;;4.20;;
10191;SDS011;17580;50.850;4.504;2022-10-17T06:21:29;3.37;;;3.00;;
10191;SDS011;17580;50.850;4.504;2022-10-17T06:24:00;4.30;;;4.00;;
10191;SDS011;17580;50.850;4.504;2022-10-17T06:26:27;6.33;;;3.50;;
10191;SDS011;17580;50.850;4.504;2022-10-17T06:28:54;15.93;;;3.80;;
10191;SDS011;17580;50.850;4.504;2022-10-17T06:31:22;6.83;;;3.70;;
10191;SDS011;17580;50.850;4.504;2022-10-17T06:33:49;3.43;;;3.13;;
10191;SDS011;17580;50.850;4.504;2022-10-17T06:36:16;3.40;;;3.20;;
10191;SDS011;17580;50.850;4.504;2022-10-17T06:38:43;3.40;;;3.20;;
10191;SDS011;17580;50.850;4.504;2022-10-17T06:41:10;5.27;;;4.13;;
10191;SDS011;17580;50.850;4.504;2022-10-17T06:43:39;3.90;;;3.70;;
10191;SDS011;17580;50.850;4.504;2022-10-17T06:46:09;4.10;;;3.80;;
10191;SDS011;17580;50.850;4.504;2022-10-17T06:48:38;3.07;;;2.87;;
10191;SDS011;17580;50.850;4.504;2022-10-17T06:51:05;3.97;;;3.53;;
10191;SDS011;17580;50.850;4.504;2022-10-17T06:53:34;4.37;;;4.07;;
10191;SDS011;17580;50.850;4.504;2022-10-17T06:56:01;3.90;;;3.67;;
10191;SDS011;17580;50.850;4.504;2022-10-17T06:58:28;5.67;;;3.67;;
10191;SDS011;17580;50.850;4.504;2022-10-17T07:00:57;4.20;;;3.70;;
10191;SDS011;17580;50.850;4.504;2022-10-17T07:03:24;5.63;;;4.13;;
10191;SDS011;17580;50.850;4.504;2022-10-17T07:05:53;3.50;;;3.30;;
10191;SDS011;17580;50.850;4.504;2022-10-17T07:08:20;7.30;;;4.30;;
10191;SDS011;17580;50.850;4.504;2022-10-17T07:10:48;6.40;;;3.63;;
10191;SDS011;17580;50.850;4.504;2022-10-17T07:13:16;3.80;;;3.50;;
10191;SDS011;17580;50.850;4.504;2022-10-17T07:15:43;4.63;;;4.00;;
10191;SDS011;17580;50.850;4.504;2022-10-17T07:18:10;4.37;;;3.33;;
10191;SDS011;17580;50.850;4.504;2022-10-17T07:20:37;4.77;;;3.60;;
10191;SDS011;17580;50.850;4.504;2022-10-17T07:23:06;7.80;;;4.23;;
10191;SDS011;17580;50.850;4.504;2022-10-17T07:25:33;3.83;;;3.47;;
10191;SDS011;17580;50.850;4.504;2022-10-17T07:28:01;6.83;;;3.97;;
10191;SDS011;17580;50.850;4.504;2022-10-17T07:30:28;5.23;;;3.27;;
10191;SDS011;17580;50.850;4.504;2022-10-17T07:32:55;3.20;;;3.00;;
10191;SDS011;17580;50.850;4.504;2022-10-17T07:35:22;3.37;;;3.07;;
10191;SDS011;17580;50.850;4.504;2022-10-17T07:37:49;3.10;;;2.90;;
10191;SDS011;17580;50.850;4.504;2022-10-17T07:40:17;6.77;;;3.17;;
10191;SDS011;17580;50.850;4.504;2022-10-17T07:42:44;4.37;;;3.57;;
10191;SDS011;17580;50.850;4.504;2022-10-17T07:45:11;3.60;;;3.30;;
10191;SDS011;17580;50.850;4.504;2022-10-17T07:47:39;3.33;;;3.03;;
10191;SDS011;17580;50.850;4.504;2022-10-17T07:50:07;3.90;;;3.20;;
10191;SDS011;17580;50.850;4.504;2022-10-17T07:52:34;3.23;;;2.93;;
10191;SDS011;17580;50.850;4.504;2022-10-17T07:55:01;5.63;;;3.63;;
10191;SDS011;17580;50.850;4.504;2022-10-17T07:57:30;17.63;;;3.80;;
10191;SDS011;17580;50.850;4.504;2022-10-17T07:59:57;4.83;;;3.70;;
10191;SDS011;17580;50.850;4.504;2022-10-17T08:02:24;7.60;;;3.40;;
10191;SDS011;17580;50.850;4.504;2022-10-17T08:04:52;3.93;;;3.30;;
10191;SDS011;17580;50.850;4.504;2022-10-17T08:07:19;7.70;;;3.77;;
10191;SDS011;17580;50.850;4.504;2022-10-17T08:09:46;3.70;;;3.50;;
10191;SDS011;17580;50.850;4.504;2022-10-17T08:12:14;4.20;;;3.50;;
10191;SDS011;17580;50.850;4.504;2022-10-17T08:14:43;4.50;;;3.00;;
10191;SDS011;17580;50.850;4.504;2022-10-17T08:17:10;4.20;;;3.90;;
10191;SDS011;17580;50.850;4.504;2022-10-17T08:19:37;4.23;;;3.57;;
10191;SDS011;17580;50.850;4.504;2022-10-17T08:22:05;5.53;;;4.40;;
10191;SDS011;17580;50.850;4.504;2022-10-17T08:24:32;3.37;;;3.07;;
10191;SDS011;17580;50.850;4.504;2022-10-17T08:26:59;5.23;;;3.43;;
10191;SDS011;17580;50.850;4.504;2022-10-17T08:29:26;4.47;;;3.40;;
10191;SDS011;17580;50.850;4.504;2022-10-17T08:31:55;4.27;;;2.97;;
10191;SDS011;17580;50.850;4.504;2022-10-17T08:34:22;4.97;;;3.13;;
10191;SDS011;17580;50.850;4.504;2022-10-17T08:36:49;6.80;;;3.73;;
10191;SDS011;17580;50.850;4.504;2022-10-17T08:39:15;5.53;;;3.83;;
10191;SDS011;17580;50.850;4.504;2022-10-17T08:41:48;3.40;;;3.20;;
10191;SDS011;17580;50.850;4.504;2022-10-17T08:44:29;6.00;;;3.87;;
10191;SDS011;17580;50.850;4.504;2022-10-17T08:47:08;4.00;;;3.70;;
10191;SDS011;17580;50.850;4.504;2022-10-17T08:49:41;8.33;;;4.37;;
10191;SDS011;17580;50.850;4.504;2022-10-17T08:52:14;4.23;;;3.90;;
10191;SDS011;17580;50.850;4.504;2022-10-17T08:54:45;5.13;;;4.13;;
10191;SDS011;17580;50.850;4.504;2022-10-17T08:57:14;4.50;;;3.67;;
10191;SDS011;17580;50.850;4.504;2022-10-17T08:59:42;3.67;;;3.37;;
10191;SDS011;17580;50.850;4.504;2022-10-17T09:02:19;4.17;;;3.60;;
10191;SDS011;17580;50.850;4.504;2022-10-17T09:05:09;3.10;;;2.80;;
10191;SDS011;17580;50.850;4.504;2022-10-17T09:07:51;4.87;;;3.40;;
10191;SDS011;17580;50.850;4.504;2022-10-17T09:10:26;6.53;;;4.30;;
10191;SDS011;17580;50.850;4.504;2022-10-17T09:13:02;4.63;;;4.23;;
10191;SDS011;17580;50.850;4.504;2022-10-17T09:15:42;5.20;;;3.83;;
10191;SDS011;17580;50.850;4.504;2022-10-17T09:18:21;5.20;;;3.73;;
10191;SDS011;17580;50.850;4.504;2022-10-17T09:20:52;4.37;;;3.43;;
10191;SDS011;17580;50.850;4.504;2022-10-17T09:23:23;3.37;;;3.17;;
10191;SDS011;17580;50.850;4.504;2022-10-17T09:25:52;4.43;;;3.20;;
10191;SDS011;17580;50.850;4.504;2022-10-17T09:28:22;3.80;;;3.47;;
10191;SDS011;17580;50.850;4.504;2022-10-17T09:30:54;3.30;;;2.80;;
10191;SDS011;17580;50.850;4.504;2022-10-17T09:33:26;3.40;;;3.20;;
10191;SDS011;17580;50.850;4.504;2022-10-17T09:35:55;4.17;;;3.50;;
10191;SDS011;17580;50.850;4.504;2022-10-17T09:38:25;5.40;;;3.93;;
10191;SDS011;17580;50.850;4.504;2022-10-17T09:41:06;3.77;;;3.50;;
10191;SDS011;17580;50.850;4.504;2022-10-17T09:43:41;3.83;;;3.10;;
10191;SDS011;17580;50.850;4.504;2022-10-17T09:46:10;3.27;;;3.07;;
10191;SDS011;17580;50.850;4.504;2022-10-17T09:48:44;3.67;;;3.37;;
10191;SDS011;17580;50.850;4.504;2022-10-17T09:51:15;4.07;;;3.63;;
10191;SDS011;17580;50.850;4.504;2022-10-17T09:53:44;8.23;;;3.90;;
10191;SDS011;17580;50.850;4.504;2022-10-17T09:56:16;4.17;;;3.87;;
10191;SDS011;17580;50.850;4.504;2022-10-17T09:58:45;6.40;;;3.57;;
10191;SDS011;17580;50.850;4.504;2022-10-17T10:01:16;3.60;;;3.40;;
10191;SDS011;17580;50.850;4.504;2022-10-17T10:03:46;4.70;;;4.30;;
10191;SDS011;17580;50.850;4.504;2022-10-17T10:06:33;5.13;;;4.57;;
10191;SDS011;17580;50.850;4.504;2022-10-17T10:09:00;3.77;;;3.40;;
10191;SDS011;17580;50.850;4.504;2022-10-17T10:11:43;4.73;;;4.13;;
10191;SDS011;17580;50.850;4.504;2022-10-17T10:14:12;4.17;;;3.73;;
10191;SDS011;17580;50.850;4.504;2022-10-17T10:16:46;5.73;;;3.90;;
10191;SDS011;17580;50.850;4.504;2022-10-17T10:19:20;5.50;;;4.50;;
10191;SDS011;17580;50.850;4.504;2022-10-17T10:21:54;8.33;;;4.37;;
10191;SDS011;17580;50.850;4.504;2022-10-17T10:24:22;4.10;;;3.80;;
10191;SDS011;17580;50.850;4.504;2022-10-17T10:26:50;4.70;;;4.30;;
10191;SDS011;17580;50.850;4.504;2022-10-17T10:29:20;4.83;;;4.10;;
10191;SDS011;17580;50.850;4.504;2022-10-17T10:31:53;4.63;;;4.23;;
10191;SDS011;17580;50.850;4.504;2022-10-17T10:34:22;5.10;;;4.70;;
10191;SDS011;17580;50.850;4.504;2022-10-17T10:36:55;5.77;;;4.87;;
10191;SDS011;17580;50.850;4.504;2022-10-17T10:39:33;7.00;;;4.77;;
10191;SDS011;17580;50.850;4.504;2022-10-17T10:42:16;6.60;;;4.67;;
10191;SDS011;17580;50.850;4.504;2022-10-17T10:44:47;3.70;;;3.40;;
10191;SDS011;17580;50.850;4.504;2022-10-17T10:47:20;6.30;;;5.03;;
10191;SDS011;17580;50.850;4.504;2022-10-17T10:49:52;4.47;;;4.07;;
10191;SDS011;17580;50.850;4.504;2022-10-17T10:52:32;5.10;;;4.53;;
10191;SDS011;17580;50.850;4.504;2022-10-17T10:55:06;5.03;;;4.50;;
10191;SDS011;17580;50.850;4.504;2022-10-17T10:57:42;4.93;;;4.50;;
10191;SDS011;17580;50.850;4.504;2022-10-17T11:00:13;4.77;;;4.30;;
10191;SDS011;17580;50.850;4.504;2022-10-17T11:02:46;5.63;;;4.47;;
10191;SDS011;17580;50.850;4.504;2022-10-17T11:05:23;4.37;;;3.90;;
10191;SDS011;17580;50.850;4.504;2022-10-17T11:07:59;4.07;;;3.70;;
10191;SDS011;17580;50.850;4.504;2022-10-17T11:10:32;3.87;;;3.60;;
10191;SDS011;17580;50.850;4.504;2022-10-17T11:13:09;6.03;;;4.13;;
10191;SDS011;17580;50.850;4.504;2022-10-17T11:15:41;5.60;;;4.40;;
10191;SDS011;17580;50.850;4.504;2022-10-17T11:18:15;3.83;;;3.40;;
10191;SDS011;17580;50.850;4.504;2022-10-17T11:20:52;6.00;;;4.37;;
10191;SDS011;17580;50.850;4.504;2022-10-17T11:23:23;5.57;;;4.33;;
10191;SDS011;17580;50.850;4.504;2022-10-17T11:25:56;6.23;;;4.57;;
10191;SDS011;17580;50.850;4.504;2022-10-17T11:28:27;5.37;;;3.97;;
10191;SDS011;17580;50.850;4.504;2022-10-17T11:30:56;4.47;;;4.07;;
10191;SDS011;17580;50.850;4.504;2022-10-17T11:33:28;4.30;;;3.90;;
10191;SDS011;17580;50.850;4.504;2022-10-17T11:36:02;6.87;;;4.07;;
10191;SDS011;17580;50.850;4.504;2022-10-17T11:38:35;4.33;;;3.93;;
10191;SDS011;17580;50.850;4.504;2022-10-17T11:41:08;4.60;;;4.20;;
10191;SDS011;17580;50.850;4.504;2022-10-17T11:43:39;4.27;;;3.57;;
10191;SDS011;17580;50.850;4.504;2022-10-17T11:46:15;5.20;;;4.70;;
10191;SDS011;17580;50.850;4.504;2022-10-17T11:48:47;4.20;;;3.77;;
10191;SDS011;17580;50.850;4.504;2022-10-17T11:51:24;4.10;;;3.80;;
10191;SDS011;17580;50.850;4.504;2022-10-17T11:53:53;4.67;;;4.33;;
10191;SDS011;17580;50.850;4.504;2022-10-17T11:56:25;5.73;;;3.87;;
10191;SDS011;17580;50.850;4.504;2022-10-17T11:59:00;7.60;;;3.73;;
10191;SDS011;17580;50.850;4.504;2022-10-17T12:01:51;7.83;;;4.57;;
10191;SDS011;17580;50.850;4.504;2022-10-17T12:04:25;7.67;;;4.43;;
10191;SDS011;17580;50.850;4.504;2022-10-17T12:07:07;7.93;;;3.97;;
10191;SDS011;17580;50.850;4.504;2022-10-17T12:09:40;4.43;;;4.03;;
10191;SDS011;17580;50.850;4.504;2022-10-17T12:12:22;8.27;;;4.27;;
10191;SDS011;17580;50.850;4.504;2022-10-17T12:14:51;4.53;;;4.20;;
10191;SDS011;17580;50.850;4.504;2022-10-17T12:17:26;5.27;;;4.83;;
10191;SDS011;17580;50.850;4.504;2022-10-17T12:22:51;7.53;;;4.63;;
10191;SDS011;17580;50.850;4.504;2022-10-17T12:25:20;6.93;;;3.90;;
10191;SDS011;17580;50.850;4.504;2022-10-17T12:27:50;4.60;;;3.70;;
10191;SDS011;17580;50.850;4.504;2022-10-17T12:30:38;4.93;;;4.30;;
10191;SDS011;17580;50.850;4.504;2022-10-17T12:33:16;6.00;;;4.50;;
10191;SDS011;17580;50.850;4.504;2022-10-17T12:35:47;4.57;;;4.17;;
10191;SDS011;17580;50.850;4.504;2022-10-17T12:38:21;6.93;;;4.80;;
10191;SDS011;17580;50.850;4.504;2022-10-17T12:40:54;5.03;;;4.63;;
10191;SDS011;17580;50.850;4.504;2022-10-17T12:43:32;5.00;;;4.60;;
10191;SDS011;17580;50.850;4.504;2022-10-17T12:46:03;6.13;;;5.63;;
10191;SDS011;17580;50.850;4.504;2022-10-17T12:54:34;8.27;;;6.70;;
10191;SDS011;17580;50.850;4.504;2022-10-17T12:57:11;6.77;;;5.90;;
10191;SDS011;17580;50.850;4.504;2022-10-17T12:59:42;5.83;;;5.33;;
10191;SDS011;17580;50.850;4.504;2022-10-17T13:02:11;6.20;;;5.27;;
10191;SDS011;17580;50.850;4.504;2022-10-17T13:04:44;6.53;;;5.47;;
10191;SDS011;17580;50.850;4.504;2022-10-17T13:07:14;8.53;;;6.30;;
10191;SDS011;17580;50.850;4.504;2022-10-17T13:09:46;6.70;;;6.10;;
10191;SDS011;17580;50.850;4.504;2022-10-17T13:12:17;7.43;;;5.93;;
10191;SDS011;17580;50.850;4.504;2022-10-17T13:14:49;7.93;;;6.83;;
10191;SDS011;17580;50.850;4.504;2022-10-17T13:17:22;8.00;;;7.17;;
10191;SDS011;17580;50.850;4.504;2022-10-17T13:19:51;6.43;;;5.83;;
10191;SDS011;17580;50.850;4.504;2022-10-17T13:22:19;7.20;;;6.50;;
10191;SDS011;17580;50.850;4.504;2022-10-17T13:24:49;7.77;;;6.20;;
10191;SDS011;17580;50.850;4.504;2022-10-17T13:27:21;6.07;;;5.57;;
10191;SDS011;17580;50.850;4.504;2022-10-17T13:29:51;6.33;;;5.73;;
10191;SDS011;17580;50.850;4.504;2022-10-17T13:32:20;6.80;;;6.20;;
10191;SDS011;17580;50.850;4.504;2022-10-17T13:37:33;6.00;;;4.70;;
10191;SDS011;17580;50.850;4.504;2022-10-17T13:40:02;5.47;;;4.97;;
10191;SDS011;17580;50.850;4.504;2022-10-17T13:42:30;5.63;;;5.13;;
10191;SDS011;17580;50.850;4.504;2022-10-17T13:45:03;8.37;;;5.60;;
10191;SDS011;17580;50.850;4.504;2022-10-17T13:47:41;5.57;;;5.07;;
10191;SDS011;17580;50.850;4.504;2022-10-17T13:50:12;6.00;;;4.53;;
10191;SDS011;17580;50.850;4.504;2022-10-17T13:52:45;5.90;;;5.40;;
10191;SDS011;17580;50.850;4.504;2022-10-17T13:55:14;9.87;;;6.63;;
10191;SDS011;17580;50.850;4.504;2022-10-17T13:57:44;6.30;;;5.17;;
10191;SDS011;17580;50.850;4.504;2022-10-17T14:00:14;4.90;;;4.40;;
10191;SDS011;17580;50.850;4.504;2022-10-17T14:02:44;5.87;;;4.70;;
10191;SDS011;17580;50.850;4.504;2022-10-17T14:05:13;4.00;;;3.60;;
10191;SDS011;17580;50.850;4.504;2022-10-17T14:07:42;4.60;;;4.13;;
10191;SDS011;17580;50.850;4.504;2022-10-17T14:10:18;5.50;;;3.73;;
10191;SDS011;17580;50.850;4.504;2022-10-17T14:12:47;5.63;;;4.10;;
10191;SDS011;17580;50.850;4.504;2022-10-17T14:15:15;4.33;;;3.27;;
10191;SDS011;17580;50.850;4.504;2022-10-17T14:17:42;3.40;;;3.10;;
10191;SDS011;17580;50.850;4.504;2022-10-17T14:20:15;3.60;;;3.07;;
10191;SDS011;17580;50.850;4.504;2022-10-17T14:22:44;3.10;;;2.90;;
10191;SDS011;17580;50.850;4.504;2022-10-17T14:25:29;3.27;;;3.07;;
10191;SDS011;17580;50.850;4.504;2022-10-17T14:28:00;2.73;;;2.57;;
10191;SDS011;17580;50.850;4.504;2022-10-17T14:30:32;6.53;;;3.20;;
10191;SDS011;17580;50.850;4.504;2022-10-17T14:33:01;4.00;;;3.70;;
10191;SDS011;17580;50.850;4.504;2022-10-17T14:35:30;3.60;;;3.27;;
10191;SDS011;17580;50.850;4.504;2022-10-17T14:37:59;3.23;;;2.93;;
10191;SDS011;17580;50.850;4.504;2022-10-17T14:40:29;3.00;;;2.83;;
10191;SDS011;17580;50.850;4.504;2022-10-17T14:42:57;3.20;;;2.90;;
10191;SDS011;17580;50.850;4.504;2022-10-17T14:45:28;3.27;;;2.90;;
10191;SDS011;17580;50.850;4.504;2022-10-17T14:47:59;3.43;;;2.80;;
10191;SDS011;17580;50.850;4.504;2022-10-17T14:50:30;5.63;;;3.27;;
10191;SDS011;17580;50.850;4.504;2022-10-17T14:53:01;4.43;;;2.80;;
10191;SDS011;17580;50.850;4.504;2022-10-17T14:55:32;3.03;;;2.90;;
10191;SDS011;17580;50.850;4.504;2022-10-17T14:58:00;4.33;;;2.60;;
10191;SDS011;17580;50.850;4.504;2022-10-17T15:00:27;2.13;;;1.93;;
10191;SDS011;17580;50.850;4.504;2022-10-17T15:02:54;2.63;;;2.33;;
10191;SDS011;17580;50.850;4.504;2022-10-17T15:05:21;3.13;;;2.93;;
10191;SDS011;17580;50.850;4.504;2022-10-17T15:07:49;3.23;;;3.03;;
10191;SDS011;17580;50.850;4.504;2022-10-17T15:10:24;2.83;;;2.73;;
10191;SDS011;17580;50.850;4.504;2022-10-17T15:12:57;2.73;;;2.53;;
10191;SDS011;17580;50.850;4.504;2022-10-17T15:15:25;3.00;;;2.70;;
10191;SDS011;17580;50.850;4.504;2022-10-17T15:17:52;2.73;;;2.53;;
10191;SDS011;17580;50.850;4.504;2022-10-17T15:20:19;2.97;;;2.77;;
10191;SDS011;17580;50.850;4.504;2022-10-17T15:22:50;3.20;;;2.90;;